x

West Santa Barbara 38 Nm West Of Santa Barbara, Ca (46054) Wave Buoy

5:50 - Sat 31st Jan 2015 All times are PST. -8 hours from GMT.

  • Sig Wave height 7.2ft
  • Swell Direction
  • Peak Period 15s
  • Average Period 7s
  • Wind
    20mph, 25mph gusts
  • Sea Temp 60°f
  • Air Temp 58°f
  • Sea Pressure 1010.5mb
  • West Santa Barbara  38 Nm West Of Santa Barbara, Ca
  • West Santa Barbara  38 Nm West Of Santa Barbara, Ca

More Historic Weather Station data

Upgrade to MSW Pro to gain access to the past 30 days of data for over 8000 Wavebouys and Weather Stations around the globe.

Join Pro

Comparision Forecast

View Surf forecast
   
sam. 01/31 5:50 7ft 15s 7s 20 25 mph 1010.5mb 60f 58f
4:50 7.5ft 9s 7s 25 27 mph 1010mb 60f 58f
3:50 7.5ft 15s 7s 22 25 mph 1009.6mb 60f 58f
2:50 7.5ft 15s 7s 22 27 mph 1009.9mb 60f 58f
1:50 8ft 16s 7s 25 29 mph 1010.4mb 60f 58f
12:50 7ft 16s 7s 20 25 mph 1010.7mb 60f 58f
ven. 01/30 11:50 7ft 16s 6s 25 29 mph 1010.8mb 60f 58f
10:50 8ft 8s 7s 22 27 mph 1011.5mb 60f 58f
9:50 8.5ft 16s 7s 25 29 mph 1011.6mb 60f 58f
8:50 8.5ft 16s 7s 27 31 mph 1011.3mb 60f 58f
7:50 8ft 16s 6s 27 31 mph 1011.2mb 60f 58f
6:50 8.5ft 16s 7s 25 29 mph 1011mb 60f 58f
5:50 8.5ft 16s 7s 25 31 mph 1010.8mb 61f 58f
4:50 7ft 8s 6s 27 31 mph 1011mb 60f 58f
3:50 7.5ft 16s 6s 25 29 mph 1010.8mb 60f 59f
2:50 7ft 16s 6s 25 29 mph 1010.8mb 60f 59f
1:50 6.5ft 16s 6s 25 29 mph 1010.8mb 60f 59f
12:50 7ft 17s 7s 20 25 mph 1011.9mb 60f 59f
11:50 6.5ft 17s 6s 18 22 mph 1013mb 60f 58f
10:50 6.5ft 16s 7s 20 22 mph 1013.7mb 60f 59f
9:50 7ft 17s 6s 20 22 mph 1013.8mb 60f 58f
8:50 7ft 16s 7s 20 25 mph 1013.8mb 60f 58f
7:50 6ft 17s 7s 20 25 mph 1013.6mb 60f 59f
6:50 7ft 17s 7s 18 20 mph 1013.7mb 60f 59f
5:50 6ft 17s 8s 13 16 mph 1013.9mb 60f 59f
4:50 6.5ft 17s 8s 7 11 mph 1013.8mb 60f 60f
3:50 6ft 17s 7s 4 7 mph 1013.9mb 60f 60f
2:50 5ft 17s 7s 2 4 mph 1014.3mb 60f 60f
1:50 5.5ft 17s 8s 7 9 mph 1014.8mb 60f 60f
12:50 5.5ft 17s 7s 13 16 mph 1015.1mb 60f 59f
jeu. 01/29 11:50 6ft 17s 7s 16 18 mph 1015.3mb 60f 60f
10:50 6ft 17s 7s 13 18 mph 1015.4mb 60f 60f
9:50 5.5ft 17s 7s 16 18 mph 1015.6mb 60f 60f
8:50 6.5ft 17s 8s 16 18 mph 1015.7mb 60f 60f
7:50 5.5ft 17s 6s 18 22 mph 1015.6mb 60f 61f
6:50 5.5ft 17s 7s 18 20 mph 1015.4mb 60f 60f
5:50 5ft 19s 6s 18 20 mph 1015.2mb 60f 60f
4:50 5ft 12s 6s 18 20 mph 1015.1mb 60f 60f
3:50 6ft 19s 7s 18 20 mph 1015.2mb 60f 60f
2:50 5ft 11s 6s 18 22 mph 1015mb 60f 60f
1:50 5ft 19s  -  18 22 mph 1015.3mb 60f 60f
12:50 4.5ft 19s 8s 13 18 mph 1015.8mb 60f 60f
11:50 5ft 12s 8s 11 13 mph 1016.9mb 60f 60f
10:50 5ft 13s 8s 13 16 mph 1017.6mb 60f 60f
9:50 4.5ft 13s 8s 11
mph
1017.7mb 60f 61f
7:50 5ft 13s 10s 13 16 mph 1016.9mb 60f 60f
6:50 4.5ft 12s 10s 9
mph
1016.6mb 60f 61f
5:50 4.5ft 11s 10s 9
mph
1016.5mb 60f 61f
4:50 4.5ft 14s 10s 7
mph
1016.5mb 60f 62f
3:50 4.5ft 13s 10s 7 9 mph 1017mb 60f 62f
2:50 5ft 14s 11s 7
mph
1017.3mb 60f 61f
1:50 4.5ft 12s 10s 7
mph
1017.4mb 60f 62f
12:50 4.5ft 12s 10s 7 9 mph 1017.6mb 60f 61f
mer. 01/28 11:50 4.5ft 13s 10s 4 7 mph 1018.2mb 60f 61f
10:50 5ft 13s 10s 7 9 mph 1018.5mb 60f 61f
9:50 4.5ft 12s 10s 7 9 mph 1018.8mb 60f 61f
8:50 5ft 13s 10s 9 11 mph 1018.9mb 60f 62f
7:50 6ft 13s 11s 7 9 mph 1018.7mb 60f 62f
6:50 4.5ft 13s 10s 9
mph
1018.4mb 60f 61f
5:50 5ft 14s 11s 9 11 mph 1018.4mb 61f 61f
4:50 5ft 14s 11s 9
mph
1018.5mb 61f 61f
3:50 5ft 12s 11s 2 4 mph 1018.3mb 61f 61f
2:50 5ft 14s 11s 7
mph
1018.6mb 61f 61f
1:50 5ft 14s 11s 4 7 mph 1018.9mb 61f 61f
12:50 5ft 15s 11s 4
mph
1019.3mb 61f 61f
11:50 5ft 14s 11s 4 7 mph 1019.9mb 61f 60f
10:50 5.5ft 14s 11s 2 4 mph 1020.8mb 61f 61f
9:50 6ft 13s 11s 4
mph
1020.8mb 60f 60f
8:50 5.5ft 14s 11s 2 4 mph 1020.8mb 60f 60f
7:50 5ft 14s 11s 2 4 mph 1020.5mb 60f 60f
6:50 6.5ft 14s 12s 4 7 mph 1020.5mb 60f 60f
5:50 5.5ft 14s 11s 4
mph
1020.1mb 60f 60f
4:50 6ft 15s 11s 7
mph
1019.9mb 60f 60f
3:50 6.5ft 15s 11s 4 7 mph 1020.4mb 60f 60f
2:50 6.5ft 15s 11s 4 7 mph 1021.1mb 60f 59f
1:50 4.5ft 13s 9s 9 11 mph 1021.3mb 60f 60f
12:50 5.5ft 15s 10s 13 16 mph 1021mb 60f 59f
mar. 01/27 11:50 5.5ft 15s 11s 13 18 mph 1021.1mb 60f 60f
10:50 6ft 14s 12s 11 13 mph 1021.4mb 60f 60f
9:50 5ft 15s 12s 9 11 mph 1021.5mb 61f 60f
8:50 5.5ft 14s 12s 9 11 mph 1021.7mb 60f 60f
7:50 7ft 15s 12s 7 9 mph 1022mb 61f 60f
6:50 6ft 15s 12s 2 4 mph 1022.1mb 61f 60f
5:50 6.5ft 15s 12s 4
mph
1021.6mb 61f 60f
4:50 6ft 14s 12s 2 4 mph 1021.3mb 62f 62f
3:50 6.5ft 14s 12s  -  2 mph 1021.7mb 62f 64f